createdAt,value
2022-11-20T00:02:23.146Z,97655.03
2022-11-20T00:04:49.429Z,97656.78
2022-11-20T00:07:15.347Z,97655.59
2022-11-20T00:09:41.150Z,97660.38
2022-11-20T00:12:06.993Z,97655.38
2022-11-20T00:14:32.699Z,97656.03
2022-11-20T00:16:58.461Z,97660.94
2022-11-20T00:19:24.131Z,97660.59
2022-11-20T00:21:51.628Z,97644.28
2022-11-20T00:24:17.444Z,97649.16
2022-11-20T00:26:43.148Z,97642.59
2022-11-20T00:29:10.433Z,97650.94
2022-11-20T00:31:36.108Z,97659.13
2022-11-20T00:34:01.869Z,97658.13
2022-11-20T00:36:28.961Z,97656.66
2022-11-20T00:38:58.671Z,97661.47
2022-11-20T00:41:25.844Z,97659.66
2022-11-20T00:43:53.188Z,97652.22
2022-11-20T00:46:21.685Z,97650.41
2022-11-20T00:48:47.956Z,97661.09
2022-11-20T00:51:16.020Z,97653.63
2022-11-20T00:53:42.267Z,97660.69
2022-11-20T00:56:11.534Z,97664.31
2022-11-20T00:58:38.800Z,97653.16
2022-11-20T01:01:04.623Z,97652.34
2022-11-20T01:03:38.994Z,97657.31
2022-11-20T01:06:16.202Z,97656.50
2022-11-20T01:08:42.309Z,97646.50
2022-11-20T01:11:11.704Z,97659.00
2022-11-20T01:13:37.556Z,97657.03
2022-11-20T01:16:15.341Z,97660.47
2022-11-20T01:18:44.311Z,97665.56
2022-11-20T01:21:16.570Z,97666.38
2022-11-20T01:23:43.741Z,97664.91
2022-11-20T01:26:12.025Z,97669.88
2022-11-20T01:28:39.673Z,97665.44
2022-11-20T01:31:20.236Z,97666.56
2022-11-20T01:33:47.726Z,97663.56
2022-11-20T01:36:14.658Z,97660.94
2022-11-20T01:38:40.434Z,97651.06
2022-11-20T01:41:07.549Z,97656.13
2022-11-20T01:43:34.345Z,97653.69
2022-11-20T01:46:18.408Z,97651.53
2022-11-20T01:49:11.114Z,97659.75
2022-11-20T01:51:45.022Z,97647.72
2022-11-20T01:54:17.285Z,97647.06
2022-11-20T01:56:44.420Z,97645.25
2022-11-20T01:59:12.323Z,97645.09
2022-11-20T02:01:39.406Z,97640.94
2022-11-20T02:04:07.186Z,97636.97
2022-11-20T02:06:38.887Z,97641.22
2022-11-20T02:09:04.542Z,97638.97
2022-11-20T02:11:30.986Z,97632.34
2022-11-20T02:13:57.218Z,97629.53
2022-11-20T02:16:39.068Z,97627.72
2022-11-20T02:19:12.985Z,97631.16
2022-11-20T02:21:47.324Z,97626.91
2022-11-20T02:24:15.714Z,97640.06
2022-11-20T02:26:51.331Z,97639.06
2022-11-20T02:29:22.989Z,97634.06
2022-11-20T02:31:48.901Z,97639.63
2022-11-20T02:34:14.585Z,97629.44
2022-11-20T02:36:41.753Z,97628.81
2022-11-20T02:39:09.203Z,97623.38
2022-11-20T02:41:37.328Z,97623.19
2022-11-20T02:44:04.432Z,97616.28
2022-11-20T02:46:30.952Z,97618.94
2022-11-20T02:48:56.707Z,97617.28
2022-11-20T02:51:22.784Z,97621.75
2022-11-20T02:53:48.701Z,97628.09
2022-11-20T02:56:14.671Z,97627.47
2022-11-20T02:58:40.355Z,97623.19
2022-11-20T03:01:06.082Z,97623.19
2022-11-20T03:03:31.999Z,97627.09
2022-11-20T03:05:59.715Z,97617.25
2022-11-20T03:08:26.149Z,97615.25
2022-11-20T03:10:52.199Z,97622.50
2022-11-20T03:13:18.013Z,97616.41
2022-11-20T03:15:43.700Z,97609.84
2022-11-20T03:18:09.387Z,97609.84
2022-11-20T03:20:35.117Z,97609.34
2022-11-20T03:23:01.592Z,97614.44
2022-11-20T03:25:27.657Z,97608.16
2022-11-20T03:27:54.361Z,97610.44
2022-11-20T03:30:20.136Z,97612.06
2022-11-20T03:32:46.319Z,97611.97
2022-11-20T03:35:11.993Z,97605.41
2022-11-20T03:37:37.648Z,97612.66
2022-11-20T03:40:04.221Z,97615.66
2022-11-20T03:42:48.076Z,97606.66
2022-11-20T03:45:15.807Z,97607.84
2022-11-20T03:47:42.133Z,97612.00
2022-11-20T03:50:09.364Z,97610.03
2022-11-20T03:52:35.033Z,97604.41
2022-11-20T03:55:00.876Z,97605.50
2022-11-20T03:57:26.681Z,97591.16
2022-11-20T03:59:52.376Z,97602.50
2022-11-20T04:02:18.426Z,97605.59
2022-11-20T04:04:44.502Z,97599.34
2022-11-20T04:07:10.252Z,97598.97
2022-11-20T04:09:36.031Z,97595.19
2022-11-20T04:12:01.721Z,97598.63
2022-11-20T04:14:27.384Z,97592.56
2022-11-20T04:16:53.242Z,97594.00
2022-11-20T04:19:19.355Z,97596.47
2022-11-20T04:21:45.679Z,97596.47
2022-11-20T04:24:11.928Z,97601.72
2022-11-20T04:26:38.691Z,97593.19
2022-11-20T04:29:04.406Z,97592.38
2022-11-20T04:31:33.137Z,97601.44
2022-11-20T04:34:04.204Z,97592.56
2022-11-20T04:36:30.718Z,97598.97
2022-11-20T04:39:02.012Z,97585.53
2022-11-20T04:41:30.472Z,97578.19
2022-11-20T04:44:03.281Z,97590.34
2022-11-20T04:46:31.192Z,97579.00
2022-11-20T04:48:57.154Z,97586.34
2022-11-20T04:51:23.110Z,97591.06
2022-11-20T04:53:49.069Z,97580.41
2022-11-20T04:56:15.553Z,97580.84
2022-11-20T04:58:41.992Z,97587.28
2022-11-20T05:01:12.226Z,97584.00
2022-11-20T05:03:42.305Z,97582.66
2022-11-20T05:06:10.301Z,97588.38
2022-11-20T05:08:36.013Z,97588.03
2022-11-20T05:11:10.303Z,97584.22
2022-11-20T05:13:37.113Z,97579.75
2022-11-20T05:16:09.063Z,97583.13
2022-11-20T05:18:35.767Z,97589.75
2022-11-20T05:21:01.887Z,97592.00
2022-11-20T05:23:29.099Z,97587.19
2022-11-20T05:25:59.167Z,97584.22
2022-11-20T05:28:27.500Z,97588.09
2022-11-20T05:30:53.270Z,97579.94
2022-11-20T05:33:19.332Z,97578.13
2022-11-20T05:35:45.026Z,97586.19
2022-11-20T05:38:10.704Z,97581.94
2022-11-20T05:40:36.416Z,97570.97
2022-11-20T05:43:02.607Z,97570.16
2022-11-20T05:45:28.542Z,97563.78
2022-11-20T05:47:57.500Z,97551.97
2022-11-20T05:50:23.190Z,97560.31
2022-11-20T05:52:48.855Z,97559.16
2022-11-20T05:55:14.764Z,97557.97
2022-11-20T05:57:40.447Z,97567.78
2022-11-20T06:00:06.833Z,97570.50
2022-11-20T06:02:35.472Z,97557.44
2022-11-20T06:05:01.244Z,97557.44
2022-11-20T06:07:26.968Z,97559.25
2022-11-20T06:09:52.697Z,97552.53
2022-11-20T06:12:18.405Z,97565.03
2022-11-20T06:14:44.085Z,97553.69
2022-11-20T06:17:10.119Z,97558.06
2022-11-20T06:19:35.780Z,97562.69
2022-11-20T06:22:01.445Z,97564.88
2022-11-20T06:24:27.216Z,97560.88
2022-11-20T06:26:52.992Z,97559.50
2022-11-20T06:29:18.775Z,97559.78
2022-11-20T06:31:44.896Z,97561.16
2022-11-20T06:34:11.905Z,97557.69
2022-11-20T06:36:37.730Z,97554.88
2022-11-20T06:39:03.727Z,97554.88
2022-11-20T06:41:29.398Z,97568.22
2022-11-20T06:43:55.413Z,97564.97
2022-11-20T06:46:21.840Z,97570.31
2022-11-20T06:48:48.416Z,97573.88
2022-11-20T06:51:14.569Z,97576.69
2022-11-20T06:53:40.349Z,97572.75
2022-11-20T06:56:07.645Z,97568.13
2022-11-20T06:58:34.809Z,97579.78
2022-11-20T07:01:02.073Z,97580.22
2022-11-20T07:03:27.903Z,97578.69
2022-11-20T07:05:57.854Z,97586.75
2022-11-20T07:08:24.760Z,97591.84
2022-11-20T07:10:50.813Z,97591.19
2022-11-20T07:13:16.656Z,97582.94
2022-11-20T07:15:42.330Z,97592.56
2022-11-20T07:18:08.112Z,97593.72
2022-11-20T07:20:33.793Z,97592.28
2022-11-20T07:22:59.667Z,97596.00
2022-11-20T07:25:26.784Z,97585.13
2022-11-20T07:27:52.669Z,97588.22
2022-11-20T07:30:18.737Z,97590.66
2022-11-20T07:32:50.654Z,97583.19
2022-11-20T07:35:16.525Z,97585.09
2022-11-20T07:37:42.208Z,97589.19
2022-11-20T07:40:08.194Z,97592.19
2022-11-20T07:42:33.876Z,97584.84
2022-11-20T07:44:59.700Z,97591.91
2022-11-20T07:47:25.404Z,97591.75
2022-11-20T07:49:51.084Z,97589.72
2022-11-20T07:52:16.765Z,97585.16
2022-11-20T07:54:42.436Z,97590.78
2022-11-20T07:57:08.124Z,97593.13
2022-11-20T07:59:33.832Z,97593.47
2022-11-20T08:01:59.486Z,97594.81
2022-11-20T08:04:25.190Z,97593.88
2022-11-20T08:06:52.749Z,97592.56
2022-11-20T08:09:18.595Z,97581.44
2022-11-20T08:12:02.846Z,97588.81
2022-11-20T08:14:28.545Z,97593.53
2022-11-20T08:16:54.241Z,97591.31
2022-11-20T08:19:20.792Z,97591.38
2022-11-20T08:21:46.661Z,97588.78
2022-11-20T08:24:12.447Z,97596.16
2022-11-20T08:26:39.630Z,97599.41
2022-11-20T08:29:06.643Z,97597.41
2022-11-20T08:31:32.769Z,97598.84
2022-11-20T08:33:58.449Z,97590.72
2022-11-20T08:36:25.449Z,97587.91
2022-11-20T08:38:53.421Z,97586.88
2022-11-20T08:41:28.417Z,97593.19
2022-11-20T08:43:58.090Z,97592.56
2022-11-20T08:46:34.445Z,97594.44
2022-11-20T08:49:00.347Z,97591.00
2022-11-20T08:51:26.036Z,97590.19
2022-11-20T08:53:51.712Z,97593.66
2022-11-20T08:56:18.089Z,97596.13
2022-11-20T08:59:15.439Z,97590.97
2022-11-20T09:01:29.804Z,97593.38
2022-11-20T09:03:57.149Z,97596.97
2022-11-20T09:06:22.806Z,97598.16
2022-11-20T09:08:52.651Z,97590.69
2022-11-20T09:11:18.390Z,97596.19
2022-11-20T09:13:44.150Z,97581.19
2022-11-20T09:17:21.985Z,97579.78
2022-11-20T09:19:57.706Z,97579.59
2022-11-20T09:22:23.360Z,97574.94
2022-11-20T09:24:49.283Z,97574.81
2022-11-20T09:27:20.114Z,97568.16
2022-11-20T09:29:45.770Z,97559.84
2022-11-20T09:32:11.486Z,97554.59
2022-11-20T09:34:37.190Z,97558.91
2022-11-20T09:37:06.246Z,97567.91
2022-11-20T09:39:33.945Z,97570.19
2022-11-20T09:42:04.726Z,97572.47
2022-11-20T09:44:50.083Z,97572.75
2022-11-20T09:47:54.889Z,97574.28
2022-11-20T09:50:28.022Z,97572.72
2022-11-20T09:53:16.799Z,97564.56
2022-11-20T09:55:42.736Z,97569.66
2022-11-20T09:58:29.620Z,97568.84
2022-11-20T10:01:01.230Z,97570.69
2022-11-20T10:03:57.098Z,97569.66
2022-11-20T10:06:30.406Z,97563.78
2022-11-20T10:09:22.604Z,97566.22
2022-11-20T10:12:11.704Z,97566.44
2022-11-20T10:15:04.774Z,97568.25
2022-11-20T10:17:57.842Z,97562.06
2022-11-20T10:20:39.073Z,97564.53
2022-11-20T10:23:25.983Z,97555.19
2022-11-20T10:26:12.505Z,97552.53
2022-11-20T10:29:08.829Z,97553.19
2022-11-20T10:31:38.372Z,97552.81
2022-11-20T10:34:26.969Z,97556.31
2022-11-20T10:37:03.827Z,97544.53
2022-11-20T10:39:51.134Z,97544.16
2022-11-20T10:42:30.266Z,97541.09
2022-11-20T10:45:09.453Z,97532.59
2022-11-20T10:47:36.093Z,97527.47
2022-11-20T10:50:06.277Z,97526.47
2022-11-20T10:52:56.478Z,97528.06
2022-11-20T10:55:33.161Z,97523.38
2022-11-20T10:58:13.584Z,97522.53
2022-11-20T11:00:39.660Z,97515.81
2022-11-20T11:03:24.081Z,97515.34
2022-11-20T11:06:05.788Z,97514.53
2022-11-20T11:08:37.763Z,97513.47
2022-11-20T11:11:20.578Z,97511.38
2022-11-20T11:13:46.274Z,97506.03
2022-11-20T11:16:26.616Z,97506.44
2022-11-20T11:19:07.207Z,97503.53
2022-11-20T11:21:32.992Z,97499.34
2022-11-20T11:24:26.770Z,97505.03
2022-11-20T11:26:59.349Z,97509.69
2022-11-20T11:29:28.328Z,97585.66
2022-11-20T11:32:21.894Z,97574.53
2022-11-20T11:35:18.670Z,97563.66
2022-11-20T11:37:47.362Z,97559.09
2022-11-20T11:40:23.790Z,97551.09
2022-11-20T11:43:38.099Z,97557.31
2022-11-20T11:46:34.320Z,97560.53
2022-11-20T11:49:09.202Z,97557.91
2022-11-20T11:51:46.754Z,97554.16
2022-11-20T11:54:28.503Z,97548.63
2022-11-20T11:56:54.611Z,97538.25
2022-11-20T11:59:46.154Z,97539.66
2022-11-20T12:02:29.943Z,97530.31
2022-11-20T12:05:09.005Z,97535.41
2022-11-20T12:07:48.100Z,97541.19
2022-11-20T12:10:32.533Z,97540.03
2022-11-20T12:13:13.769Z,97546.00
2022-11-20T12:15:43.295Z,97547.63
2022-11-20T12:18:16.001Z,97547.22
2022-11-20T12:20:53.488Z,97547.66
2022-11-20T12:23:42.804Z,97557.19
2022-11-20T12:26:38.034Z,97552.44
2022-11-20T12:29:15.523Z,97552.00
2022-11-20T12:31:55.463Z,97544.47
2022-11-20T12:34:29.095Z,97540.19
2022-11-20T12:37:16.332Z,97536.66
2022-11-20T12:39:43.370Z,97528.00
2022-11-20T12:42:48.634Z,97530.88
2022-11-20T12:45:29.603Z,97526.47
2022-11-20T12:48:22.694Z,97525.47
2022-11-20T12:51:18.908Z,97522.22
2022-11-20T12:54:17.961Z,97521.00
2022-11-20T12:56:51.239Z,97520.19
2022-11-20T12:59:38.818Z,97520.41
2022-11-20T13:02:30.728Z,97526.91
2022-11-20T13:05:19.132Z,97520.44
2022-11-20T13:07:45.236Z,97517.81
2022-11-20T13:10:36.724Z,97518.22
2022-11-20T13:13:17.326Z,97525.53
2022-11-20T13:15:56.179Z,97514.75
2022-11-20T13:18:22.002Z,97518.22
2022-11-20T13:20:49.734Z,97511.91
2022-11-20T13:23:26.115Z,97520.88
2022-11-20T13:26:02.777Z,97518.81
2022-11-20T13:28:30.346Z,97519.19
2022-11-20T13:30:58.337Z,97514.50
2022-11-20T13:33:29.650Z,97520.41
2022-11-20T13:36:01.790Z,97525.72
2022-11-20T13:38:33.734Z,97518.63
2022-11-20T13:41:24.101Z,97515.56
2022-11-20T13:43:50.221Z,97526.16
2022-11-20T13:46:16.042Z,97524.13
2022-11-20T13:48:45.461Z,97523.91
2022-11-20T13:51:29.301Z,97522.84
2022-11-20T13:54:21.282Z,97521.59
2022-11-20T13:57:14.258Z,97516.25
2022-11-20T14:00:01.760Z,97522.34
2022-11-20T14:02:30.192Z,97524.13
2022-11-20T14:04:59.024Z,97517.81
2022-11-20T14:07:39.676Z,97507.25
2022-11-20T14:10:06.294Z,97508.28
2022-11-20T14:12:33.861Z,97511.13
2022-11-20T14:15:00.296Z,97506.84
2022-11-20T14:17:28.760Z,97503.59
2022-11-20T14:19:57.974Z,97519.25
2022-11-20T14:22:26.491Z,97523.31
2022-11-20T14:25:06.187Z,97514.59
2022-11-20T14:27:36.634Z,97527.41
2022-11-20T14:30:03.504Z,97529.22
2022-11-20T14:32:31.318Z,97523.13
2022-11-20T14:35:00.285Z,97526.09
2022-11-20T14:37:29.895Z,97525.88
2022-11-20T14:39:56.561Z,97515.53
2022-11-20T14:42:25.116Z,97521.03
2022-11-20T14:44:53.157Z,97506.81
2022-11-20T14:47:22.415Z,97517.00
2022-11-20T14:49:49.864Z,97510.91
2022-11-20T14:52:23.895Z,97513.56
2022-11-20T14:54:51.625Z,97515.59
2022-11-20T14:57:23.444Z,97514.38
2022-11-20T14:59:49.091Z,97515.94
2022-11-20T15:02:15.161Z,97511.47
2022-11-20T15:04:49.030Z,97518.78
2022-11-20T15:07:25.172Z,97514.91
2022-11-20T15:10:00.975Z,97518.97
2022-11-20T15:12:27.160Z,97516.94
2022-11-20T15:14:52.909Z,97514.13
2022-11-20T15:17:18.581Z,97507.81
2022-11-20T15:19:44.270Z,97506.44
2022-11-20T15:22:16.720Z,97509.25
2022-11-20T15:24:42.711Z,97507.81
2022-11-20T15:27:09.736Z,97500.50
2022-11-20T15:29:35.418Z,97498.13
2022-11-20T15:32:01.148Z,97507.28
2022-11-20T15:34:27.358Z,97504.66
2022-11-20T15:36:54.566Z,97511.78
2022-11-20T15:39:20.656Z,97505.94
2022-11-20T15:41:47.074Z,97499.63
2022-11-20T15:44:12.762Z,97496.78
2022-11-20T15:46:42.613Z,97489.88
2022-11-20T15:49:13.985Z,97491.69
2022-11-20T15:51:46.514Z,97484.19
2022-11-20T15:54:13.565Z,97482.34
2022-11-20T15:56:39.269Z,97476.47
2022-11-20T15:59:04.939Z,97480.72
2022-11-20T16:01:30.890Z,97480.72
2022-11-20T16:03:56.695Z,97477.88
2022-11-20T16:06:22.402Z,97480.31
2022-11-20T16:08:48.099Z,97478.09
2022-11-20T16:11:15.611Z,97470.78
2022-11-20T16:14:00.334Z,97464.28
2022-11-20T16:16:30.343Z,97469.56
2022-11-20T16:18:56.953Z,97468.13
2022-11-20T16:21:31.325Z,97466.09
2022-11-20T16:24:01.785Z,97474.22
2022-11-20T16:26:27.957Z,97455.94
2022-11-20T16:28:54.129Z,97454.09
2022-11-20T16:31:20.493Z,97462.22
2022-11-20T16:34:02.568Z,97463.84
2022-11-20T16:36:30.115Z,97464.06
2022-11-20T16:39:00.874Z,97464.66
2022-11-20T16:41:29.890Z,97459.94
2022-11-20T16:43:58.128Z,97463.19
2022-11-20T16:46:26.045Z,97458.50
2022-11-20T16:48:55.873Z,97455.03
2022-11-20T16:51:23.340Z,97455.47
2022-11-20T16:53:52.774Z,97457.91
2022-11-20T16:56:24.225Z,97451.00
2022-11-20T16:58:50.594Z,97445.91
2022-11-20T17:01:20.389Z,97451.00
2022-11-20T17:03:53.159Z,97462.38
2022-11-20T17:06:24.864Z,97460.75
2022-11-20T17:08:50.927Z,97467.44
2022-11-20T17:11:18.565Z,97457.47
2022-11-20T17:13:45.044Z,97457.88
2022-11-20T17:16:13.776Z,97452.16
2022-11-20T17:18:40.248Z,97462.50
2022-11-20T17:21:06.713Z,97459.25
2022-11-20T17:23:34.559Z,97470.41
2022-11-20T17:26:05.512Z,97461.06
2022-11-20T17:28:31.733Z,97453.34
2022-11-20T17:31:16.717Z,97451.06
2022-11-20T17:33:44.590Z,97454.09
2022-11-20T17:36:12.184Z,97446.13
2022-11-20T17:38:37.970Z,97448.13
2022-11-20T17:41:07.814Z,97439.53
2022-11-20T17:43:36.379Z,97431.59
2022-11-20T17:46:09.030Z,97430.94
2022-11-20T17:48:35.357Z,97425.66
2022-11-20T17:51:03.376Z,97428.41
2022-11-20T17:53:32.797Z,97429.19
2022-11-20T17:56:17.000Z,97417.19
2022-11-20T17:58:42.805Z,97425.13
2022-11-20T18:01:09.273Z,97415.41
2022-11-20T18:03:35.737Z,97419.69
2022-11-20T18:06:13.294Z,97411.97
2022-11-20T18:08:39.349Z,97406.50
2022-11-20T18:11:18.652Z,97407.50
2022-11-20T18:14:04.917Z,97401.81
2022-11-20T18:16:33.604Z,97400.56
2022-11-20T18:18:59.565Z,97393.63
2022-11-20T18:21:27.352Z,97391.94
2022-11-20T18:23:54.222Z,97388.06
2022-11-20T18:26:20.096Z,97390.91
2022-11-20T18:28:46.108Z,97387.63
2022-11-20T18:31:13.237Z,97386.22
2022-11-20T18:33:39.195Z,97387.22
2022-11-20T18:36:09.687Z,97382.75
2022-11-20T18:38:35.805Z,97378.50
2022-11-20T18:41:04.001Z,97381.31
2022-11-20T18:43:49.371Z,97374.84
2022-11-20T18:46:15.057Z,97371.59
2022-11-20T18:48:41.239Z,97367.88
2022-11-20T18:51:07.441Z,97369.34
2022-11-20T18:53:35.989Z,97366.88
2022-11-20T18:56:05.535Z,97363.22
2022-11-20T18:58:31.298Z,97353.53
2022-11-20T19:01:04.731Z,97339.94
2022-11-20T19:03:30.433Z,97342.97
2022-11-20T19:05:56.102Z,97343.94
2022-11-20T19:08:21.810Z,97330.16
2022-11-20T19:10:47.498Z,97321.63
2022-11-20T19:13:13.198Z,97326.50
2022-11-20T19:15:39.336Z,97325.50
2022-11-20T19:18:05.964Z,97325.13
2022-11-20T19:20:31.952Z,97325.94
2022-11-20T19:22:57.713Z,97322.50
2022-11-20T19:25:23.425Z,97323.13
2022-11-20T19:27:49.125Z,97324.56
2022-11-20T19:30:14.898Z,97319.09
2022-11-20T19:32:40.575Z,97317.88
2022-11-20T19:35:06.640Z,97317.88
2022-11-20T19:37:33.542Z,97319.69
2022-11-20T19:40:00.506Z,97321.31
2022-11-20T19:42:26.239Z,97321.94
2022-11-20T19:44:52.481Z,97315.25
2022-11-20T19:47:18.140Z,97312.44
2022-11-20T19:49:43.900Z,97309.59
2022-11-20T19:52:10.056Z,97308.38
2022-11-20T19:54:35.742Z,97301.75
2022-11-20T19:57:01.455Z,97306.22
2022-11-20T19:59:27.336Z,97296.72
2022-11-20T20:01:53.093Z,97303.00
2022-11-20T20:04:19.497Z,97311.38
2022-11-20T20:06:45.201Z,97302.66
2022-11-20T20:09:12.500Z,97296.59
2022-11-20T20:11:39.071Z,97299.44
2022-11-20T20:14:07.842Z,97289.50
2022-11-20T20:16:34.528Z,97302.94
2022-11-20T20:19:02.478Z,97297.66
2022-11-20T20:21:29.778Z,97289.97
2022-11-20T20:23:56.148Z,97293.22
2022-11-20T20:26:26.751Z,97287.94
2022-11-20T20:28:52.840Z,97286.50
2022-11-20T20:31:20.974Z,97284.88
2022-11-20T20:33:46.930Z,97291.78
2022-11-20T20:36:15.616Z,97292.19
2022-11-20T20:38:42.673Z,97287.94
2022-11-20T20:41:08.380Z,97288.16
2022-11-20T20:43:55.015Z,97293.03
2022-11-20T20:46:20.800Z,97293.44
2022-11-20T20:48:51.516Z,97295.28
2022-11-20T20:51:19.966Z,97301.56
2022-11-20T20:53:45.645Z,97299.94
2022-11-20T20:56:11.369Z,97288.78
2022-11-20T20:58:37.137Z,97282.88
2022-11-20T21:01:06.159Z,97283.28
2022-11-20T21:03:33.353Z,97275.59
2022-11-20T21:05:59.152Z,97280.28
2022-11-20T21:08:25.693Z,97278.03
2022-11-20T21:10:53.512Z,97274.97
2022-11-20T21:13:21.090Z,97266.66
2022-11-20T21:15:49.752Z,97261.75
2022-11-20T21:18:17.189Z,97261.56
2022-11-20T21:21:03.156Z,97253.84
2022-11-20T21:23:28.738Z,97254.03
2022-11-20T21:25:54.338Z,97247.34
2022-11-20T21:28:20.072Z,97246.31
2022-11-20T21:30:46.535Z,97237.16
2022-11-20T21:33:12.646Z,97230.88
2022-11-20T21:35:38.369Z,97223.34
2022-11-20T21:38:04.734Z,97216.25
2022-11-20T21:40:30.393Z,97207.91
2022-11-20T21:42:56.082Z,97214.19
2022-11-20T21:45:21.924Z,97212.78
2022-11-20T21:47:51.068Z,97209.94
2022-11-20T21:50:17.887Z,97203.22
2022-11-20T21:52:43.905Z,97205.66
2022-11-20T21:55:10.248Z,97206.06
2022-11-20T21:57:35.930Z,97196.91
2022-11-20T22:00:03.689Z,97198.16
2022-11-20T22:02:29.377Z,97194.69
2022-11-20T22:04:55.252Z,97184.13
2022-11-20T22:07:20.954Z,97192.88
2022-11-20T22:09:46.651Z,97187.78
2022-11-20T22:12:12.355Z,97189.44
2022-11-20T22:14:38.090Z,97188.63
2022-11-20T22:17:03.827Z,97189.63
2022-11-20T22:19:29.524Z,97186.19
2022-11-20T22:21:55.266Z,97186.59
2022-11-20T22:24:22.650Z,97186.19
2022-11-20T22:26:49.328Z,97183.53
2022-11-20T22:29:17.579Z,97180.31
2022-11-20T22:31:43.733Z,97173.19
2022-11-20T22:34:11.816Z,97171.78
2022-11-20T22:36:37.978Z,97169.31
2022-11-20T22:39:04.691Z,97168.69
2022-11-20T22:41:31.064Z,97164.03
2022-11-20T22:44:01.872Z,97168.50
2022-11-20T22:46:30.202Z,97173.38
2022-11-20T22:49:00.758Z,97169.31
2022-11-20T22:51:29.049Z,97169.72
2022-11-20T22:53:55.086Z,97167.06
2022-11-20T22:56:21.839Z,97175.81
2022-11-20T22:58:50.204Z,97173.59
2022-11-20T23:01:21.084Z,97169.50
2022-11-20T23:03:51.841Z,97168.91
2022-11-20T23:06:19.268Z,97174.19
2022-11-20T23:08:45.350Z,97174.59
2022-11-20T23:11:16.190Z,97168.72
2022-11-20T23:13:43.089Z,97168.31
2022-11-20T23:16:11.536Z,97168.50
2022-11-20T23:18:37.287Z,97171.16
2022-11-20T23:21:07.946Z,97171.16
2022-11-20T23:23:33.640Z,97174.41
2022-11-20T23:26:04.069Z,97173.19
2022-11-20T23:28:29.843Z,97176.44
2022-11-20T23:30:56.554Z,97169.91
2022-11-20T23:33:22.230Z,97168.31
2022-11-20T23:35:48.232Z,97173.16
2022-11-20T23:38:13.906Z,97164.03
2022-11-20T23:40:41.422Z,97163.22
2022-11-20T23:43:16.189Z,97162.41
2022-11-20T23:45:43.627Z,97164.03
2022-11-20T23:48:09.310Z,97165.66
2022-11-20T23:50:35.465Z,97159.34
2022-11-20T23:53:01.149Z,97161.78
2022-11-20T23:55:27.221Z,97155.28
2022-11-20T23:57:52.954Z,97153.44
